sensor_id;sensor_type;location;lat;lon;timestamp;temperature;humidity
35559;DHT22;21661;50.794;-1.066;2024-01-15T00:01:14;5.20;99.90
35559;DHT22;21661;50.794;-1.066;2024-01-15T00:03:40;5.20;99.90
35559;DHT22;21661;50.794;-1.066;2024-01-15T00:06:05;5.20;99.90
35559;DHT22;21661;50.794;-1.066;2024-01-15T00:08:31;5.20;99.90
35559;DHT22;21661;50.794;-1.066;2024-01-15T00:10:57;5.20;99.90
35559;DHT22;21661;50.794;-1.066;2024-01-15T00:13:23;5.30;99.90
35559;DHT22;21661;50.794;-1.066;2024-01-15T00:15:48;5.30;99.90
35559;DHT22;21661;50.794;-1.066;2024-01-15T00:18:14;5.30;99.90
35559;DHT22;21661;50.794;-1.066;2024-01-15T00:20:41;5.30;99.90
35559;DHT22;21661;50.794;-1.066;2024-01-15T00:23:07;5.40;99.90
35559;DHT22;21661;50.794;-1.066;2024-01-15T00:25:32;5.40;99.90
35559;DHT22;21661;50.794;-1.066;2024-01-15T00:27:58;5.40;99.90
35559;DHT22;21661;50.794;-1.066;2024-01-15T00:30:23;5.40;99.90
35559;DHT22;21661;50.794;-1.066;2024-01-15T00:32:49;5.50;99.90
35559;DHT22;21661;50.794;-1.066;2024-01-15T00:35:15;5.40;99.90
35559;DHT22;21661;50.794;-1.066;2024-01-15T00:37:40;5.50;99.90
35559;DHT22;21661;50.794;-1.066;2024-01-15T00:40:06;5.40;99.90
35559;DHT22;21661;50.794;-1.066;2024-01-15T00:42:33;5.40;99.90
35559;DHT22;21661;50.794;-1.066;2024-01-15T00:44:59;5.30;99.90
35559;DHT22;21661;50.794;-1.066;2024-01-15T00:47:25;5.30;99.90
35559;DHT22;21661;50.794;-1.066;2024-01-15T00:49:51;5.30;99.90
35559;DHT22;21661;50.794;-1.066;2024-01-15T00:52:16;5.20;99.90
35559;DHT22;21661;50.794;-1.066;2024-01-15T00:54:42;5.20;99.90
35559;DHT22;21661;50.794;-1.066;2024-01-15T00:57:08;5.20;99.90
35559;DHT22;21661;50.794;-1.066;2024-01-15T00:59:33;5.20;99.90
35559;DHT22;21661;50.794;-1.066;2024-01-15T01:01:59;5.10;99.90
35559;DHT22;21661;50.794;-1.066;2024-01-15T01:04:25;5.00;99.90
35559;DHT22;21661;50.794;-1.066;2024-01-15T01:06:50;5.00;99.90
35559;DHT22;21661;50.794;-1.066;2024-01-15T01:09:16;4.90;99.90
35559;DHT22;21661;50.794;-1.066;2024-01-15T01:11:41;4.90;99.90
35559;DHT22;21661;50.794;-1.066;2024-01-15T01:14:07;4.90;99.90
35559;DHT22;21661;50.794;-1.066;2024-01-15T01:16:33;4.90;99.90
35559;DHT22;21661;50.794;-1.066;2024-01-15T01:19:05;4.90;99.90
35559;DHT22;21661;50.794;-1.066;2024-01-15T01:21:31;5.00;99.90
35559;DHT22;21661;50.794;-1.066;2024-01-15T01:23:56;4.90;99.90
35559;DHT22;21661;50.794;-1.066;2024-01-15T01:26:22;5.00;99.90
35559;DHT22;21661;50.794;-1.066;2024-01-15T01:28:48;4.90;99.90
35559;DHT22;21661;50.794;-1.066;2024-01-15T01:31:13;4.90;99.90
35559;DHT22;21661;50.794;-1.066;2024-01-15T01:33:39;4.90;99.90
35559;DHT22;21661;50.794;-1.066;2024-01-15T01:36:08;4.90;99.90
35559;DHT22;21661;50.794;-1.066;2024-01-15T01:38:35;4.80;99.90
35559;DHT22;21661;50.794;-1.066;2024-01-15T01:41:01;4.80;99.90
35559;DHT22;21661;50.794;-1.066;2024-01-15T01:43:26;4.80;99.90
35559;DHT22;21661;50.794;-1.066;2024-01-15T01:45:52;4.90;99.90
35559;DHT22;21661;50.794;-1.066;2024-01-15T01:48:18;4.80;99.90
35559;DHT22;21661;50.794;-1.066;2024-01-15T01:50:44;4.80;99.90
35559;DHT22;21661;50.794;-1.066;2024-01-15T01:53:10;4.70;99.90
35559;DHT22;21661;50.794;-1.066;2024-01-15T01:55:36;4.70;99.90
35559;DHT22;21661;50.794;-1.066;2024-01-15T01:58:04;4.70;99.90
35559;DHT22;21661;50.794;-1.066;2024-01-15T02:00:31;4.70;99.90
35559;DHT22;21661;50.794;-1.066;2024-01-15T02:02:57;4.60;99.90
35559;DHT22;21661;50.794;-1.066;2024-01-15T02:05:23;4.70;99.90
35559;DHT22;21661;50.794;-1.066;2024-01-15T02:07:49;4.70;99.90
35559;DHT22;21661;50.794;-1.066;2024-01-15T02:10:14;4.70;99.90
35559;DHT22;21661;50.794;-1.066;2024-01-15T02:12:40;4.70;99.90
35559;DHT22;21661;50.794;-1.066;2024-01-15T02:15:07;4.60;99.90
35559;DHT22;21661;50.794;-1.066;2024-01-15T02:17:33;4.50;99.90
35559;DHT22;21661;50.794;-1.066;2024-01-15T02:19:59;4.50;99.90
35559;DHT22;21661;50.794;-1.066;2024-01-15T02:22:24;4.60;99.90
35559;DHT22;21661;50.794;-1.066;2024-01-15T02:24:50;4.60;99.90
35559;DHT22;21661;50.794;-1.066;2024-01-15T02:27:17;4.60;99.90
35559;DHT22;21661;50.794;-1.066;2024-01-15T02:29:43;4.60;99.90
35559;DHT22;21661;50.794;-1.066;2024-01-15T02:32:09;4.60;99.90
35559;DHT22;21661;50.794;-1.066;2024-01-15T02:34:34;4.70;99.90
35559;DHT22;21661;50.794;-1.066;2024-01-15T02:37:00;4.70;99.90
35559;DHT22;21661;50.794;-1.066;2024-01-15T02:39:26;4.70;99.90
35559;DHT22;21661;50.794;-1.066;2024-01-15T02:41:51;4.80;99.90
35559;DHT22;21661;50.794;-1.066;2024-01-15T02:44:17;4.80;99.90
35559;DHT22;21661;50.794;-1.066;2024-01-15T02:46:43;4.80;99.90
35559;DHT22;21661;50.794;-1.066;2024-01-15T02:49:09;4.90;99.90
35559;DHT22;21661;50.794;-1.066;2024-01-15T02:51:34;4.90;99.90
35559;DHT22;21661;50.794;-1.066;2024-01-15T02:54:00;4.90;99.90
35559;DHT22;21661;50.794;-1.066;2024-01-15T02:56:26;4.90;99.90
35559;DHT22;21661;50.794;-1.066;2024-01-15T02:58:51;5.00;99.90
35559;DHT22;21661;50.794;-1.066;2024-01-15T03:01:19;5.00;99.90
35559;DHT22;21661;50.794;-1.066;2024-01-15T03:03:45;5.00;99.90
35559;DHT22;21661;50.794;-1.066;2024-01-15T03:06:11;5.00;99.90
35559;DHT22;21661;50.794;-1.066;2024-01-15T03:08:37;5.00;99.90
35559;DHT22;21661;50.794;-1.066;2024-01-15T03:11:03;5.00;99.90
35559;DHT22;21661;50.794;-1.066;2024-01-15T03:13:29;5.00;99.90
35559;DHT22;21661;50.794;-1.066;2024-01-15T03:15:54;5.00;99.90
35559;DHT22;21661;50.794;-1.066;2024-01-15T03:18:20;5.10;99.90
35559;DHT22;21661;50.794;-1.066;2024-01-15T03:20:45;5.10;99.90
35559;DHT22;21661;50.794;-1.066;2024-01-15T03:23:11;5.10;99.90
35559;DHT22;21661;50.794;-1.066;2024-01-15T03:25:36;5.20;99.90
35559;DHT22;21661;50.794;-1.066;2024-01-15T03:28:02;5.10;99.90
35559;DHT22;21661;50.794;-1.066;2024-01-15T03:30:28;5.10;99.90
35559;DHT22;21661;50.794;-1.066;2024-01-15T03:32:53;5.10;99.90
35559;DHT22;21661;50.794;-1.066;2024-01-15T03:35:19;5.10;99.90
35559;DHT22;21661;50.794;-1.066;2024-01-15T03:37:45;5.10;99.90
35559;DHT22;21661;50.794;-1.066;2024-01-15T03:40:11;5.10;99.90
35559;DHT22;21661;50.794;-1.066;2024-01-15T03:42:36;5.20;99.90
35559;DHT22;21661;50.794;-1.066;2024-01-15T03:45:02;5.10;99.90
35559;DHT22;21661;50.794;-1.066;2024-01-15T03:47:28;5.20;99.90
35559;DHT22;21661;50.794;-1.066;2024-01-15T03:49:53;5.20;99.90
35559;DHT22;21661;50.794;-1.066;2024-01-15T03:52:19;5.20;99.90
35559;DHT22;21661;50.794;-1.066;2024-01-15T03:54:45;5.10;99.90
35559;DHT22;21661;50.794;-1.066;2024-01-15T03:57:10;5.10;99.90
35559;DHT22;21661;50.794;-1.066;2024-01-15T03:59:36;5.10;99.90
35559;DHT22;21661;50.794;-1.066;2024-01-15T04:02:01;5.10;99.90
35559;DHT22;21661;50.794;-1.066;2024-01-15T04:04:27;5.10;99.90
35559;DHT22;21661;50.794;-1.066;2024-01-15T04:06:54;5.10;99.90
35559;DHT22;21661;50.794;-1.066;2024-01-15T04:09:19;5.00;99.90
35559;DHT22;21661;50.794;-1.066;2024-01-15T04:11:45;5.00;99.90
35559;DHT22;21661;50.794;-1.066;2024-01-15T04:14:11;4.90;99.90
35559;DHT22;21661;50.794;-1.066;2024-01-15T04:16:37;4.90;99.90
35559;DHT22;21661;50.794;-1.066;2024-01-15T04:19:03;4.90;99.90
35559;DHT22;21661;50.794;-1.066;2024-01-15T04:21:28;4.90;99.90
35559;DHT22;21661;50.794;-1.066;2024-01-15T04:23:54;4.90;99.90
35559;DHT22;21661;50.794;-1.066;2024-01-15T04:26:19;5.00;99.90
35559;DHT22;21661;50.794;-1.066;2024-01-15T04:28:45;5.00;99.90
35559;DHT22;21661;50.794;-1.066;2024-01-15T04:31:22;5.00;99.90
35559;DHT22;21661;50.794;-1.066;2024-01-15T04:33:47;5.00;99.90
35559;DHT22;21661;50.794;-1.066;2024-01-15T04:36:13;5.00;99.90
35559;DHT22;21661;50.794;-1.066;2024-01-15T04:38:39;5.00;99.90
35559;DHT22;21661;50.794;-1.066;2024-01-15T04:41:04;5.00;99.90
35559;DHT22;21661;50.794;-1.066;2024-01-15T04:43:30;5.00;99.90
35559;DHT22;21661;50.794;-1.066;2024-01-15T04:45:55;5.00;99.90
35559;DHT22;21661;50.794;-1.066;2024-01-15T04:48:21;5.00;99.90
35559;DHT22;21661;50.794;-1.066;2024-01-15T04:50:48;5.00;99.90
35559;DHT22;21661;50.794;-1.066;2024-01-15T04:53:15;5.00;99.90
35559;DHT22;21661;50.794;-1.066;2024-01-15T04:55:41;5.00;99.90
35559;DHT22;21661;50.794;-1.066;2024-01-15T04:58:06;5.00;99.90
35559;DHT22;21661;50.794;-1.066;2024-01-15T05:00:32;5.00;99.90
35559;DHT22;21661;50.794;-1.066;2024-01-15T05:02:58;5.00;99.90
35559;DHT22;21661;50.794;-1.066;2024-01-15T05:05:24;4.90;99.90
35559;DHT22;21661;50.794;-1.066;2024-01-15T05:07:49;4.90;99.90
35559;DHT22;21661;50.794;-1.066;2024-01-15T05:10:15;5.00;99.90
35559;DHT22;21661;50.794;-1.066;2024-01-15T05:12:40;5.00;99.90
35559;DHT22;21661;50.794;-1.066;2024-01-15T05:15:06;5.00;99.90
35559;DHT22;21661;50.794;-1.066;2024-01-15T05:17:32;5.00;99.90
35559;DHT22;21661;50.794;-1.066;2024-01-15T05:19:57;5.00;99.90
35559;DHT22;21661;50.794;-1.066;2024-01-15T05:22:23;5.00;99.90
35559;DHT22;21661;50.794;-1.066;2024-01-15T05:24:50;5.00;99.90
35559;DHT22;21661;50.794;-1.066;2024-01-15T05:27:15;5.00;99.90
35559;DHT22;21661;50.794;-1.066;2024-01-15T05:29:41;5.00;99.90
35559;DHT22;21661;50.794;-1.066;2024-01-15T05:32:07;4.90;99.90
35559;DHT22;21661;50.794;-1.066;2024-01-15T05:34:32;5.00;99.90
35559;DHT22;21661;50.794;-1.066;2024-01-15T05:36:58;5.00;99.90
35559;DHT22;21661;50.794;-1.066;2024-01-15T05:39:23;4.90;99.90
35559;DHT22;21661;50.794;-1.066;2024-01-15T05:41:49;4.90;99.90
35559;DHT22;21661;50.794;-1.066;2024-01-15T05:44:15;4.80;99.90
35559;DHT22;21661;50.794;-1.066;2024-01-15T05:46:40;4.80;99.90
35559;DHT22;21661;50.794;-1.066;2024-01-15T05:49:06;4.80;99.90
35559;DHT22;21661;50.794;-1.066;2024-01-15T05:51:31;4.90;99.90
35559;DHT22;21661;50.794;-1.066;2024-01-15T05:53:58;4.90;99.90
35559;DHT22;21661;50.794;-1.066;2024-01-15T05:56:23;4.90;99.90
35559;DHT22;21661;50.794;-1.066;2024-01-15T05:58:49;5.00;99.90
35559;DHT22;21661;50.794;-1.066;2024-01-15T06:01:15;4.90;99.90
35559;DHT22;21661;50.794;-1.066;2024-01-15T06:03:41;4.90;99.90
35559;DHT22;21661;50.794;-1.066;2024-01-15T06:06:08;4.90;99.90
35559;DHT22;21661;50.794;-1.066;2024-01-15T06:08:34;4.90;99.90
35559;DHT22;21661;50.794;-1.066;2024-01-15T06:11:00;4.90;99.90
35559;DHT22;21661;50.794;-1.066;2024-01-15T06:13:26;4.80;99.90
35559;DHT22;21661;50.794;-1.066;2024-01-15T06:15:51;4.80;99.90
35559;DHT22;21661;50.794;-1.066;2024-01-15T06:18:17;4.90;99.90
35559;DHT22;21661;50.794;-1.066;2024-01-15T06:20:42;4.80;99.90
35559;DHT22;21661;50.794;-1.066;2024-01-15T06:23:08;4.80;99.90
35559;DHT22;21661;50.794;-1.066;2024-01-15T06:25:34;4.80;99.90
35559;DHT22;21661;50.794;-1.066;2024-01-15T06:27:59;4.80;99.90
35559;DHT22;21661;50.794;-1.066;2024-01-15T06:30:25;4.80;99.90
35559;DHT22;21661;50.794;-1.066;2024-01-15T06:32:51;4.80;99.90
35559;DHT22;21661;50.794;-1.066;2024-01-15T06:35:16;4.80;99.90
35559;DHT22;21661;50.794;-1.066;2024-01-15T06:37:42;4.70;99.90
35559;DHT22;21661;50.794;-1.066;2024-01-15T06:40:08;4.60;99.90
35559;DHT22;21661;50.794;-1.066;2024-01-15T06:42:34;4.60;99.90
35559;DHT22;21661;50.794;-1.066;2024-01-15T06:45:00;4.50;99.90
35559;DHT22;21661;50.794;-1.066;2024-01-15T06:47:25;4.50;99.90
35559;DHT22;21661;50.794;-1.066;2024-01-15T06:49:51;4.50;99.90
35559;DHT22;21661;50.794;-1.066;2024-01-15T06:52:17;4.50;99.90
35559;DHT22;21661;50.794;-1.066;2024-01-15T06:54:43;4.40;99.90
35559;DHT22;21661;50.794;-1.066;2024-01-15T06:57:09;4.40;99.90
35559;DHT22;21661;50.794;-1.066;2024-01-15T06:59:34;4.40;99.90
35559;DHT22;21661;50.794;-1.066;2024-01-15T07:02:03;4.30;99.90
35559;DHT22;21661;50.794;-1.066;2024-01-15T07:04:28;4.20;99.90
35559;DHT22;21661;50.794;-1.066;2024-01-15T07:06:54;4.20;99.90
35559;DHT22;21661;50.794;-1.066;2024-01-15T07:09:19;4.20;99.90
35559;DHT22;21661;50.794;-1.066;2024-01-15T07:11:48;4.10;99.90
35559;DHT22;21661;50.794;-1.066;2024-01-15T07:14:14;4.10;99.90
35559;DHT22;21661;50.794;-1.066;2024-01-15T07:16:39;4.10;99.90
35559;DHT22;21661;50.794;-1.066;2024-01-15T07:19:05;4.10;99.90
35559;DHT22;21661;50.794;-1.066;2024-01-15T07:21:31;4.00;99.90
35559;DHT22;21661;50.794;-1.066;2024-01-15T07:23:57;4.00;99.90
35559;DHT22;21661;50.794;-1.066;2024-01-15T07:26:23;4.00;99.90
35559;DHT22;21661;50.794;-1.066;2024-01-15T07:28:48;3.90;99.90
35559;DHT22;21661;50.794;-1.066;2024-01-15T07:31:16;3.90;99.90
35559;DHT22;21661;50.794;-1.066;2024-01-15T07:33:41;3.90;99.90
35559;DHT22;21661;50.794;-1.066;2024-01-15T07:36:07;3.80;99.90
35559;DHT22;21661;50.794;-1.066;2024-01-15T07:38:33;3.80;99.90
35559;DHT22;21661;50.794;-1.066;2024-01-15T07:40:59;3.70;99.90
35559;DHT22;21661;50.794;-1.066;2024-01-15T07:43:24;3.70;99.90
35559;DHT22;21661;50.794;-1.066;2024-01-15T07:45:50;3.70;99.90
35559;DHT22;21661;50.794;-1.066;2024-01-15T07:48:16;3.60;99.90
35559;DHT22;21661;50.794;-1.066;2024-01-15T07:50:41;3.60;99.90
35559;DHT22;21661;50.794;-1.066;2024-01-15T07:53:07;3.50;99.90
35559;DHT22;21661;50.794;-1.066;2024-01-15T07:55:33;3.50;99.90
35559;DHT22;21661;50.794;-1.066;2024-01-15T07:57:58;3.50;99.90
35559;DHT22;21661;50.794;-1.066;2024-01-15T08:00:25;3.50;99.90
35559;DHT22;21661;50.794;-1.066;2024-01-15T08:02:50;3.50;99.90
35559;DHT22;21661;50.794;-1.066;2024-01-15T08:05:16;3.50;99.90
35559;DHT22;21661;50.794;-1.066;2024-01-15T08:07:42;3.40;99.90
35559;DHT22;21661;50.794;-1.066;2024-01-15T08:10:08;3.50;99.90
35559;DHT22;21661;50.794;-1.066;2024-01-15T08:12:33;3.40;99.90
35559;DHT22;21661;50.794;-1.066;2024-01-15T08:15:02;3.40;99.90
35559;DHT22;21661;50.794;-1.066;2024-01-15T08:17:27;3.50;99.90
35559;DHT22;21661;50.794;-1.066;2024-01-15T08:19:54;3.50;99.90
35559;DHT22;21661;50.794;-1.066;2024-01-15T08:22:20;3.50;99.90
35559;DHT22;21661;50.794;-1.066;2024-01-15T08:24:45;3.50;99.90
35559;DHT22;21661;50.794;-1.066;2024-01-15T08:27:11;3.50;99.90
35559;DHT22;21661;50.794;-1.066;2024-01-15T08:29:37;3.50;99.90
35559;DHT22;21661;50.794;-1.066;2024-01-15T08:32:02;3.50;99.90
35559;DHT22;21661;50.794;-1.066;2024-01-15T08:34:28;3.50;99.90
35559;DHT22;21661;50.794;-1.066;2024-01-15T08:36:54;3.50;99.90
35559;DHT22;21661;50.794;-1.066;2024-01-15T08:39:19;3.40;99.90
35559;DHT22;21661;50.794;-1.066;2024-01-15T08:41:46;3.50;99.90
35559;DHT22;21661;50.794;-1.066;2024-01-15T08:44:12;3.60;99.90
35559;DHT22;21661;50.794;-1.066;2024-01-15T08:46:38;3.50;99.90
35559;DHT22;21661;50.794;-1.066;2024-01-15T08:49:03;3.40;99.90
35559;DHT22;21661;50.794;-1.066;2024-01-15T08:51:29;3.50;99.90
35559;DHT22;21661;50.794;-1.066;2024-01-15T08:53:56;3.40;99.90
35559;DHT22;21661;50.794;-1.066;2024-01-15T08:56:22;3.30;99.90
35559;DHT22;21661;50.794;-1.066;2024-01-15T08:58:47;3.30;99.90
35559;DHT22;21661;50.794;-1.066;2024-01-15T09:01:14;3.30;99.90
35559;DHT22;21661;50.794;-1.066;2024-01-15T09:03:40;3.30;99.90
35559;DHT22;21661;50.794;-1.066;2024-01-15T09:06:08;3.30;99.90
35559;DHT22;21661;50.794;-1.066;2024-01-15T09:08:34;3.40;99.90
35559;DHT22;21661;50.794;-1.066;2024-01-15T09:11:00;3.40;99.90
35559;DHT22;21661;50.794;-1.066;2024-01-15T09:13:28;3.40;99.90
35559;DHT22;21661;50.794;-1.066;2024-01-15T09:15:54;3.40;99.90
35559;DHT22;21661;50.794;-1.066;2024-01-15T09:18:19;3.40;99.90
35559;DHT22;21661;50.794;-1.066;2024-01-15T09:20:45;3.50;99.90
35559;DHT22;21661;50.794;-1.066;2024-01-15T09:23:10;3.40;99.90
35559;DHT22;21661;50.794;-1.066;2024-01-15T09:25:36;3.40;99.90
35559;DHT22;21661;50.794;-1.066;2024-01-15T09:28:02;3.50;99.90
35559;DHT22;21661;50.794;-1.066;2024-01-15T09:30:28;3.50;99.90
35559;DHT22;21661;50.794;-1.066;2024-01-15T09:32:53;3.40;99.90
35559;DHT22;21661;50.794;-1.066;2024-01-15T09:35:19;3.40;99.90
35559;DHT22;21661;50.794;-1.066;2024-01-15T09:37:44;3.40;99.90
35559;DHT22;21661;50.794;-1.066;2024-01-15T09:40:13;3.40;99.90
35559;DHT22;21661;50.794;-1.066;2024-01-15T09:42:42;3.40;99.90
35559;DHT22;21661;50.794;-1.066;2024-01-15T09:45:09;3.40;99.90
35559;DHT22;21661;50.794;-1.066;2024-01-15T09:47:37;3.40;99.90
35559;DHT22;21661;50.794;-1.066;2024-01-15T09:50:04;3.40;99.90
35559;DHT22;21661;50.794;-1.066;2024-01-15T09:52:31;3.50;99.90
35559;DHT22;21661;50.794;-1.066;2024-01-15T09:54:58;3.50;99.90
35559;DHT22;21661;50.794;-1.066;2024-01-15T09:57:25;3.50;99.90
35559;DHT22;21661;50.794;-1.066;2024-01-15T09:59:52;3.60;99.90
35559;DHT22;21661;50.794;-1.066;2024-01-15T10:02:19;3.60;99.90
35559;DHT22;21661;50.794;-1.066;2024-01-15T10:04:45;3.60;99.90
35559;DHT22;21661;50.794;-1.066;2024-01-15T10:07:15;3.60;99.90
35559;DHT22;21661;50.794;-1.066;2024-01-15T10:09:43;3.60;99.90
35559;DHT22;21661;50.794;-1.066;2024-01-15T10:12:10;3.60;99.90
35559;DHT22;21661;50.794;-1.066;2024-01-15T10:14:36;3.70;99.90
35559;DHT22;21661;50.794;-1.066;2024-01-15T10:17:12;3.70;99.90
35559;DHT22;21661;50.794;-1.066;2024-01-15T10:19:38;3.60;99.90
35559;DHT22;21661;50.794;-1.066;2024-01-15T10:22:04;3.70;99.90
35559;DHT22;21661;50.794;-1.066;2024-01-15T10:24:29;3.60;99.90
35559;DHT22;21661;50.794;-1.066;2024-01-15T10:27:05;3.70;99.90
35559;DHT22;21661;50.794;-1.066;2024-01-15T10:29:32;3.80;99.90
35559;DHT22;21661;50.794;-1.066;2024-01-15T10:31:58;3.80;99.90
35559;DHT22;21661;50.794;-1.066;2024-01-15T10:34:25;3.90;99.90
35559;DHT22;21661;50.794;-1.066;2024-01-15T10:36:50;4.00;99.90
35559;DHT22;21661;50.794;-1.066;2024-01-15T10:39:24;4.00;99.90
35559;DHT22;21661;50.794;-1.066;2024-01-15T10:41:50;4.00;99.90
35559;DHT22;21661;50.794;-1.066;2024-01-15T10:44:17;4.00;99.90
35559;DHT22;21661;50.794;-1.066;2024-01-15T10:46:44;4.10;99.90
35559;DHT22;21661;50.794;-1.066;2024-01-15T10:49:11;4.10;99.90
35559;DHT22;21661;50.794;-1.066;2024-01-15T10:51:37;4.10;99.90
35559;DHT22;21661;50.794;-1.066;2024-01-15T10:54:04;4.10;99.90
35559;DHT22;21661;50.794;-1.066;2024-01-15T10:56:31;4.10;99.90
35559;DHT22;21661;50.794;-1.066;2024-01-15T10:58:59;4.00;99.90
35559;DHT22;21661;50.794;-1.066;2024-01-15T11:01:25;4.00;99.90
35559;DHT22;21661;50.794;-1.066;2024-01-15T11:03:51;4.10;99.90
35559;DHT22;21661;50.794;-1.066;2024-01-15T11:06:18;4.10;99.90
35559;DHT22;21661;50.794;-1.066;2024-01-15T11:08:49;4.20;99.90
35559;DHT22;21661;50.794;-1.066;2024-01-15T11:11:18;4.30;99.90
35559;DHT22;21661;50.794;-1.066;2024-01-15T11:13:47;4.30;99.90
35559;DHT22;21661;50.794;-1.066;2024-01-15T11:16:15;4.30;99.90
35559;DHT22;21661;50.794;-1.066;2024-01-15T11:21:23;4.40;99.90
35559;DHT22;21661;50.794;-1.066;2024-01-15T11:23:53;4.40;99.90
35559;DHT22;21661;50.794;-1.066;2024-01-15T11:28:58;4.60;99.90
35559;DHT22;21661;50.794;-1.066;2024-01-15T11:34:07;4.60;99.90
35559;DHT22;21661;50.794;-1.066;2024-01-15T11:42:02;4.70;99.90
35559;DHT22;21661;50.794;-1.066;2024-01-15T11:44:30;4.70;99.90
35559;DHT22;21661;50.794;-1.066;2024-01-15T11:47:00;4.70;99.90
35559;DHT22;21661;50.794;-1.066;2024-01-15T11:52:20;4.60;99.90
35559;DHT22;21661;50.794;-1.066;2024-01-15T12:00:11;4.60;99.90
35559;DHT22;21661;50.794;-1.066;2024-01-15T12:02:44;4.60;99.90
35559;DHT22;21661;50.794;-1.066;2024-01-15T12:05:17;4.60;99.90
35559;DHT22;21661;50.794;-1.066;2024-01-15T12:07:44;4.60;99.90
35559;DHT22;21661;50.794;-1.066;2024-01-15T12:10:11;4.60;99.90
35559;DHT22;21661;50.794;-1.066;2024-01-15T12:15:17;4.70;99.90
35559;DHT22;21661;50.794;-1.066;2024-01-15T12:17:43;4.70;99.90
35559;DHT22;21661;50.794;-1.066;2024-01-15T12:20:11;4.80;99.90
35559;DHT22;21661;50.794;-1.066;2024-01-15T12:22:38;4.80;99.90
35559;DHT22;21661;50.794;-1.066;2024-01-15T12:25:04;4.80;99.90
35559;DHT22;21661;50.794;-1.066;2024-01-15T12:27:30;4.80;99.90
35559;DHT22;21661;50.794;-1.066;2024-01-15T12:29:55;4.80;99.90
35559;DHT22;21661;50.794;-1.066;2024-01-15T12:32:22;4.70;99.90
35559;DHT22;21661;50.794;-1.066;2024-01-15T12:34:49;4.70;99.90
35559;DHT22;21661;50.794;-1.066;2024-01-15T12:37:17;4.80;99.90
35559;DHT22;21661;50.794;-1.066;2024-01-15T12:39:43;4.80;99.90
35559;DHT22;21661;50.794;-1.066;2024-01-15T12:42:10;4.80;99.90
35559;DHT22;21661;50.794;-1.066;2024-01-15T12:44:35;4.80;99.90
35559;DHT22;21661;50.794;-1.066;2024-01-15T12:47:04;4.90;99.90
35559;DHT22;21661;50.794;-1.066;2024-01-15T12:49:30;4.90;99.90
35559;DHT22;21661;50.794;-1.066;2024-01-15T12:51:59;4.90;99.90
35559;DHT22;21661;50.794;-1.066;2024-01-15T12:54:25;5.00;99.90
35559;DHT22;21661;50.794;-1.066;2024-01-15T12:56:51;4.90;99.90
35559;DHT22;21661;50.794;-1.066;2024-01-15T12:59:18;5.00;99.90
35559;DHT22;21661;50.794;-1.066;2024-01-15T13:01:44;5.00;99.90
35559;DHT22;21661;50.794;-1.066;2024-01-15T13:04:10;4.90;99.90
35559;DHT22;21661;50.794;-1.066;2024-01-15T13:06:36;4.90;99.90
35559;DHT22;21661;50.794;-1.066;2024-01-15T13:09:03;5.00;99.90
35559;DHT22;21661;50.794;-1.066;2024-01-15T13:11:32;5.00;99.90
35559;DHT22;21661;50.794;-1.066;2024-01-15T13:13:58;4.90;99.90
35559;DHT22;21661;50.794;-1.066;2024-01-15T13:16:24;4.90;99.90
35559;DHT22;21661;50.794;-1.066;2024-01-15T13:18:52;4.80;99.90
35559;DHT22;21661;50.794;-1.066;2024-01-15T13:21:18;4.80;99.90
35559;DHT22;21661;50.794;-1.066;2024-01-15T13:23:43;4.90;99.90
35559;DHT22;21661;50.794;-1.066;2024-01-15T13:26:09;4.90;99.90
35559;DHT22;21661;50.794;-1.066;2024-01-15T13:28:34;4.80;99.90
35559;DHT22;21661;50.794;-1.066;2024-01-15T13:31:00;4.80;99.90
35559;DHT22;21661;50.794;-1.066;2024-01-15T13:33:26;4.80;99.90
35559;DHT22;21661;50.794;-1.066;2024-01-15T13:35:52;4.80;99.90
35559;DHT22;21661;50.794;-1.066;2024-01-15T13:38:18;4.80;99.90
35559;DHT22;21661;50.794;-1.066;2024-01-15T13:40:43;4.80;99.90
35559;DHT22;21661;50.794;-1.066;2024-01-15T13:43:12;4.80;99.90
35559;DHT22;21661;50.794;-1.066;2024-01-15T13:45:41;4.80;99.90
35559;DHT22;21661;50.794;-1.066;2024-01-15T13:48:06;4.90;99.90
35559;DHT22;21661;50.794;-1.066;2024-01-15T13:50:34;4.90;99.90
35559;DHT22;21661;50.794;-1.066;2024-01-15T13:53:01;4.90;99.90
35559;DHT22;21661;50.794;-1.066;2024-01-15T13:55:27;4.90;99.90
35559;DHT22;21661;50.794;-1.066;2024-01-15T13:57:54;4.90;99.90
35559;DHT22;21661;50.794;-1.066;2024-01-15T14:00:20;4.80;99.90
35559;DHT22;21661;50.794;-1.066;2024-01-15T14:02:46;4.90;99.90
35559;DHT22;21661;50.794;-1.066;2024-01-15T14:05:12;4.80;99.90
35559;DHT22;21661;50.794;-1.066;2024-01-15T14:07:41;4.80;99.90
35559;DHT22;21661;50.794;-1.066;2024-01-15T14:10:09;4.80;99.90
35559;DHT22;21661;50.794;-1.066;2024-01-15T14:12:35;4.80;99.90
35559;DHT22;21661;50.794;-1.066;2024-01-15T14:15:05;4.70;99.90
35559;DHT22;21661;50.794;-1.066;2024-01-15T14:17:31;4.70;99.90
35559;DHT22;21661;50.794;-1.066;2024-01-15T14:19:57;4.80;99.90
35559;DHT22;21661;50.794;-1.066;2024-01-15T14:22:22;4.90;99.90
35559;DHT22;21661;50.794;-1.066;2024-01-15T14:24:48;4.90;99.90
35559;DHT22;21661;50.794;-1.066;2024-01-15T14:27:15;5.00;99.90
35559;DHT22;21661;50.794;-1.066;2024-01-15T14:29:40;5.10;99.90
35559;DHT22;21661;50.794;-1.066;2024-01-15T14:32:06;4.90;99.90
35559;DHT22;21661;50.794;-1.066;2024-01-15T14:34:32;4.90;99.90
35559;DHT22;21661;50.794;-1.066;2024-01-15T14:36:58;4.90;99.90
35559;DHT22;21661;50.794;-1.066;2024-01-15T14:39:24;4.90;99.90
35559;DHT22;21661;50.794;-1.066;2024-01-15T14:41:51;4.90;99.90
35559;DHT22;21661;50.794;-1.066;2024-01-15T14:44:17;4.90;99.90
35559;DHT22;21661;50.794;-1.066;2024-01-15T14:46:42;4.80;99.90
35559;DHT22;21661;50.794;-1.066;2024-01-15T14:49:08;4.80;99.90
35559;DHT22;21661;50.794;-1.066;2024-01-15T14:51:34;4.80;99.90
35559;DHT22;21661;50.794;-1.066;2024-01-15T14:53:59;4.70;99.90
35559;DHT22;21661;50.794;-1.066;2024-01-15T14:56:25;4.80;99.90
35559;DHT22;21661;50.794;-1.066;2024-01-15T14:58:51;4.70;99.90
35559;DHT22;21661;50.794;-1.066;2024-01-15T15:01:16;4.70;99.90
35559;DHT22;21661;50.794;-1.066;2024-01-15T15:03:42;4.70;99.90
35559;DHT22;21661;50.794;-1.066;2024-01-15T15:06:09;4.70;99.90
35559;DHT22;21661;50.794;-1.066;2024-01-15T15:08:36;4.70;99.90
35559;DHT22;21661;50.794;-1.066;2024-01-15T15:11:02;4.60;99.90
35559;DHT22;21661;50.794;-1.066;2024-01-15T15:13:28;4.60;99.90
35559;DHT22;21661;50.794;-1.066;2024-01-15T15:15:54;4.50;99.90
35559;DHT22;21661;50.794;-1.066;2024-01-15T15:18:20;4.50;99.90
35559;DHT22;21661;50.794;-1.066;2024-01-15T15:20:49;4.50;99.90
35559;DHT22;21661;50.794;-1.066;2024-01-15T15:23:15;4.50;99.90
35559;DHT22;21661;50.794;-1.066;2024-01-15T15:25:42;4.60;99.90
35559;DHT22;21661;50.794;-1.066;2024-01-15T15:28:10;4.60;99.90
35559;DHT22;21661;50.794;-1.066;2024-01-15T15:30:37;4.60;99.90
35559;DHT22;21661;50.794;-1.066;2024-01-15T15:33:03;4.50;99.90
35559;DHT22;21661;50.794;-1.066;2024-01-15T15:35:30;4.50;99.90
35559;DHT22;21661;50.794;-1.066;2024-01-15T15:37:56;4.40;99.90
35559;DHT22;21661;50.794;-1.066;2024-01-15T15:40:21;4.40;99.90
35559;DHT22;21661;50.794;-1.066;2024-01-15T15:42:48;4.40;99.90
35559;DHT22;21661;50.794;-1.066;2024-01-15T15:45:14;4.30;99.90
35559;DHT22;21661;50.794;-1.066;2024-01-15T15:47:40;4.30;99.90